Airport View

Enter AWOS ICAO identifier for current METAR.

ex. KFNL

KMRC 262315Z AUTO 21008KT 7SM BKN039 OVC047 08/07 A2997 RMK A01

26 Jan 2020 23:35

Frequency: 128.625

Phone: 931-379-0844

Other Area AWOS: KLUG - KGZS - KSYI - KM02

TAF KBNA 261720Z 2618/2718 20006KT P6SM OVC050 FM270000 20004KT P6SM VCSH OVC015 FM270400 21005KT 5SM -SHRA OVC009 FM271500 32006KT P6SM OVC015